Time,TemperatureF,DewpointF,PressureIn,WindDirection,WindDirectionDegrees,WindSpeedMPH,WindSpeedGustMPH,Humidity,HourlyPrecipIn,Conditions,Clouds,dailyrainin,SoftwareType,DateUTC
2013-08-13 00:01:00,63.1,47.0,29.71,NNW,336,3.0,-999.0,57,-99.99,,,0.00,weatherlink.com 1.10,2013-08-13 06:01:00,
2013-08-13 00:16:00,62.4,48.0,29.71,NNW,336,0.0,-999.0,59,-99.99,,,0.00,weatherlink.com 1.10,2013-08-13 06:16:00,
2013-08-13 00:31:00,61.5,47.0,29.71,NNW,336,0.0,-999.0,59,-99.99,,,0.00,weatherlink.com 1.10,2013-08-13 06:31:00,
2013-08-13 00:46:00,62.7,47.0,29.71,NNW,338,4.0,-999.0,56,-99.99,,,0.00,weatherlink.com 1.10,2013-08-13 06:46:00,
2013-08-13 01:01:00,62.1,46.0,29.71,North,359,3.0,-999.0,57,-99.99,,,0.00,weatherlink.com 1.10,2013-08-13 07:01:00,
2013-08-13 01:16:00,62.0,45.0,29.71,NE,37,1.0,-999.0,55,-99.99,,,0.00,weatherlink.com 1.10,2013-08-13 07:16:00,
2013-08-13 01:31:00,61.0,46.0,29.71,North,0,0.0,-999.0,58,-99.99,,,0.00,weatherlink.com 1.10,2013-08-13 07:31:00,
2013-08-13 01:46:00,59.9,46.0,29.72,North,0,2.0,-999.0,60,-99.99,,,0.00,weatherlink.com 1.10,2013-08-13 07:46:00,
2013-08-13 02:01:00,59.9,45.0,29.72,North,0,0.0,-999.0,59,-99.99,,,0.00,weatherlink.com 1.10,2013-08-13 08:01:00,
2013-08-13 02:16:00,58.9,45.0,29.72,North,8,1.0,-999.0,61,-99.99,,,0.00,weatherlink.com 1.10,2013-08-13 08:16:00,
2013-08-13 02:31:00,59.0,45.0,29.72,NNE,18,2.0,-999.0,61,-99.99,,,0.00,weatherlink.com 1.10,2013-08-13 08:31:00,
2013-08-13 02:46:00,59.0,45.0,29.71,NNE,23,0.0,-999.0,61,-99.99,,,0.00,weatherlink.com 1.10,2013-08-13 08:46:00,
2013-08-13 03:01:00,59.2,46.0,29.71,NNE,32,0.0,-999.0,61,-99.99,,,0.00,weatherlink.com 1.10,2013-08-13 09:01:00,
2013-08-13 03:16:00,59.3,45.0,29.71,NE,46,2.0,-999.0,60,-99.99,,,0.00,weatherlink.com 1.10,2013-08-13 09:16:00,
2013-08-13 03:31:00,59.3,45.0,29.71,NE,51,3.0,-999.0,60,-99.99,,,0.00,weatherlink.com 1.10,2013-08-13 09:31:00,
2013-08-13 03:46:00,59.0,45.0,29.72,NE,47,3.0,-999.0,61,-99.99,,,0.00,weatherlink.com 1.10,2013-08-13 09:46:00,
2013-08-13 04:01:00,58.9,45.0,29.72,NE,41,5.0,-999.0,61,-99.99,,,0.00,weatherlink.com 1.10,2013-08-13 10:01:00,
2013-08-13 04:16:00,58.7,45.0,29.72,NE,44,3.0,-999.0,61,-99.99,,,0.00,weatherlink.com 1.10,2013-08-13 10:16:00,
2013-08-13 04:31:00,58.4,45.0,29.72,NE,42,2.0,-999.0,62,-99.99,,,0.00,weatherlink.com 1.10,2013-08-13 10:31:00,
2013-08-13 04:46:00,57.8,45.0,29.73,NE,45,3.0,-999.0,63,-99.99,,,0.00,weatherlink.com 1.10,2013-08-13 10:46:00,
2013-08-13 05:01:00,57.8,45.0,29.73,NE,48,3.0,-999.0,63,-99.99,,,0.00,weatherlink.com 1.10,2013-08-13 11:01:00,
2013-08-13 05:16:00,58.0,45.0,29.73,NNE,30,0.0,-999.0,63,-99.99,,,0.00,weatherlink.com 1.10,2013-08-13 11:16:00,
2013-08-13 05:31:00,57.3,45.0,29.73,NNE,13,3.0,-999.0,64,-99.99,,,0.00,weatherlink.com 1.10,2013-08-13 11:31:00,
2013-08-13 05:47:00,56.5,46.0,29.75,NE,36,2.0,-999.0,67,-99.99,,,0.00,weatherlink.com 1.10,2013-08-13 11:47:00,
2013-08-13 06:02:00,56.5,46.0,29.76,NE,36,3.0,-999.0,67,-99.99,,,0.00,weatherlink.com 1.10,2013-08-13 12:02:00,
2013-08-13 06:16:00,56.5,45.0,29.77,NNE,18,0.0,-999.0,66,-99.99,,,0.00,weatherlink.com 1.10,2013-08-13 12:16:00,
2013-08-13 06:32:00,56.6,45.0,29.77,NE,47,3.0,-999.0,66,-99.99,,,0.00,weatherlink.com 1.10,2013-08-13 12:32:00,
2013-08-13 06:47:00,56.9,45.0,29.77,NE,50,3.0,-999.0,65,-99.99,,,0.00,weatherlink.com 1.10,2013-08-13 12:47:00,
2013-08-13 07:02:00,57.5,45.0,29.77,NE,37,3.0,-999.0,64,-99.99,,,0.00,weatherlink.com 1.10,2013-08-13 13:02:00,
2013-08-13 07:18:00,58.7,46.0,29.78,NE,35,1.0,-999.0,62,-99.99,,,0.00,weatherlink.com 1.10,2013-08-13 13:18:00,
2013-08-13 07:31:00,60.1,46.0,29.78,NE,52,5.0,-999.0,60,-99.99,,,0.00,weatherlink.com 1.10,2013-08-13 13:31:00,
2013-08-13 07:47:00,62.3,47.0,29.79,NNE,32,3.0,-999.0,57,-99.99,,,0.00,weatherlink.com 1.10,2013-08-13 13:47:00,
2013-08-13 08:02:00,65.2,46.0,29.79,North,0,6.0,-999.0,51,-99.99,,,0.00,weatherlink.com 1.10,2013-08-13 14:02:00,
2013-08-13 08:17:00,66.9,46.0,29.78,NE,44,3.0,-999.0,47,-99.99,,,0.00,weatherlink.com 1.10,2013-08-13 14:17:00,
2013-08-13 08:32:00,69.4,46.0,29.77,NNE,26,2.0,-999.0,43,-99.99,,,0.00,weatherlink.com 1.10,2013-08-13 14:32:00,
2013-08-13 08:47:00,71.3,48.0,29.78,ESE,122,3.0,-999.0,43,-99.99,,,0.00,weatherlink.com 1.10,2013-08-13 14:47:00,
2013-08-13 09:03:00,70.6,47.0,29.80,ESE,122,0.0,-999.0,43,-99.99,,,0.00,weatherlink.com 1.10,2013-08-13 15:03:00,
2013-08-13 09:18:00,71.8,47.0,29.78,ESE,122,0.0,-999.0,41,-99.99,,,0.00,weatherlink.com 1.10,2013-08-13 15:18:00,
2013-08-13 09:33:00,74.2,47.0,29.79,ESE,122,0.0,-999.0,38,-99.99,,,0.00,weatherlink.com 1.10,2013-08-13 15:33:00,
2013-08-13 09:49:00,75.6,47.0,29.79,ESE,122,2.0,-999.0,37,-99.99,,,0.00,weatherlink.com 1.10,2013-08-13 15:49:00,
2013-08-13 10:03:00,74.6,47.0,29.79,ESE,122,0.0,-999.0,37,-99.99,,,0.00,weatherlink.com 1.10,2013-08-13 16:03:00,
2013-08-13 10:18:00,73.7,48.0,29.79,North,359,6.0,-999.0,40,-99.99,,,0.00,weatherlink.com 1.10,2013-08-13 16:18:00,
2013-08-13 10:34:00,72.5,48.0,29.83,NNE,12,7.0,-999.0,42,-99.99,,,0.00,weatherlink.com 1.10,2013-08-13 16:34:00,
2013-08-13 10:49:00,72.5,50.0,29.81,ENE,69,7.0,-999.0,45,-99.99,,,0.00,weatherlink.com 1.10,2013-08-13 16:49:00,
2013-08-13 11:03:00,73.9,48.0,29.82,North,354,6.0,-999.0,40,-99.99,,,0.00,weatherlink.com 1.10,2013-08-13 17:03:00,
2013-08-13 11:18:00,77.0,45.0,29.80,North,4,0.0,-999.0,32,-99.99,,,0.00,weatherlink.com 1.10,2013-08-13 17:18:00,
2013-08-13 11:34:00,82.6,41.0,29.76,NNE,26,1.0,-999.0,23,-99.99,,,0.00,weatherlink.com 1.10,2013-08-13 17:34:00,
2013-08-13 11:49:00,83.2,41.0,29.77,NNW,345,11.0,-999.0,22,-99.99,,,0.00,weatherlink.com 1.10,2013-08-13 17:49:00,
2013-08-13 12:04:00,83.0,39.0,29.77,North,8,2.0,-999.0,21,-99.99,,,0.00,weatherlink.com 1.10,2013-08-13 18:04:00,
2013-08-13 12:18:00,84.0,39.0,29.75,NW,324,1.0,-999.0,20,-99.99,,,0.00,weatherlink.com 1.10,2013-08-13 18:18:00,
2013-08-13 12:33:00,84.9,38.0,29.75,NNW,336,6.0,-999.0,19,-99.99,,,0.00,weatherlink.com 1.10,2013-08-13 18:33:00,
2013-08-13 12:49:00,84.7,37.0,29.75,West,271,2.0,-999.0,18,-99.99,,,0.00,weatherlink.com 1.10,2013-08-13 18:49:00,
2013-08-13 13:04:00,86.3,37.0,29.73,West,273,2.0,-999.0,17,-99.99,,,0.00,weatherlink.com 1.10,2013-08-13 19:04:00,
2013-08-13 13:19:00,85.9,36.0,29.73,SW,232,2.0,-999.0,17,-99.99,,,0.00,weatherlink.com 1.10,2013-08-13 19:19:00,
2013-08-13 13:35:00,86.1,33.0,29.74,WSW,256,11.0,-999.0,15,-99.99,,,0.00,weatherlink.com 1.10,2013-08-13 19:35:00,
2013-08-13 13:49:00,87.2,36.0,29.73,NE,54,5.0,-999.0,16,-99.99,,,0.00,weatherlink.com 1.10,2013-08-13 19:49:00,
2013-08-13 14:04:00,87.2,34.0,29.72,North,1,2.0,-999.0,15,-99.99,,,0.00,weatherlink.com 1.10,2013-08-13 20:04:00,
2013-08-13 14:20:00,87.2,34.0,29.72,West,268,10.0,-999.0,15,-99.99,,,0.00,weatherlink.com 1.10,2013-08-13 20:20:00,
2013-08-13 14:35:00,86.7,34.0,29.72,West,262,0.0,-999.0,15,-99.99,,,0.00,weatherlink.com 1.10,2013-08-13 20:35:00,
2013-08-13 14:51:00,84.9,34.0,29.72,WSW,238,7.0,-999.0,16,-99.99,,,0.00,weatherlink.com 1.10,2013-08-13 20:51:00,
2013-08-13 15:05:00,87.6,36.0,29.70,West,270,11.0,-999.0,16,-99.99,,,0.00,weatherlink.com 1.10,2013-08-13 21:05:00,
2013-08-13 15:20:00,87.4,34.0,29.70,SW,231,7.0,-999.0,15,-99.99,,,0.00,weatherlink.com 1.10,2013-08-13 21:20:00,
2013-08-13 15:35:00,88.0,29.0,29.69,WSW,257,6.0,-999.0,12,-99.99,,,0.00,weatherlink.com 1.10,2013-08-13 21:35:00,
2013-08-13 15:51:00,88.0,33.0,29.68,South,176,1.0,-999.0,14,-99.99,,,0.00,weatherlink.com 1.10,2013-08-13 21:51:00,
2013-08-13 16:06:00,88.0,33.0,29.69,WSW,250,11.0,-999.0,14,-99.99,,,0.00,weatherlink.com 1.10,2013-08-13 22:06:00,
2013-08-13 16:21:00,87.6,29.0,29.69,West,271,8.0,-999.0,12,-99.99,,,0.00,weatherlink.com 1.10,2013-08-13 22:21:00,
2013-08-13 16:35:00,88.2,33.0,29.68,West,279,2.0,-999.0,14,-99.99,,,0.00,weatherlink.com 1.10,2013-08-13 22:35:00,
2013-08-13 16:50:00,88.4,33.0,29.68,West,266,0.0,-999.0,14,-99.99,,,0.00,weatherlink.com 1.10,2013-08-13 22:50:00,
2013-08-13 17:06:00,88.6,32.0,29.68,WNW,284,11.0,-999.0,13,-99.99,,,0.00,weatherlink.com 1.10,2013-08-13 23:06:00,
2013-08-13 17:21:00,87.6,33.0,29.67,West,259,5.0,-999.0,14,-99.99,,,0.00,weatherlink.com 1.10,2013-08-13 23:21:00,
2013-08-13 17:35:00,85.7,29.0,29.69,West,264,2.0,-999.0,13,-99.99,,,0.00,weatherlink.com 1.10,2013-08-13 23:35:00,
2013-08-13 17:51:00,87.6,29.0,29.68,WSW,258,1.0,-999.0,12,-99.99,,,0.00,weatherlink.com 1.10,2013-08-13 23:51:00,
2013-08-13 18:06:00,87.8,29.0,29.68,WSW,248,12.0,-999.0,12,-99.99,,,0.00,weatherlink.com 1.10,2013-08-14 00:06:00,
2013-08-13 18:22:00,87.4,29.0,29.68,WSW,248,6.0,-999.0,12,-99.99,,,0.00,weatherlink.com 1.10,2013-08-14 00:22:00,
2013-08-13 18:37:00,87.2,29.0,29.66,West,281,2.0,-999.0,12,-99.99,,,0.00,weatherlink.com 1.10,2013-08-14 00:37:00,
2013-08-13 18:51:00,87.0,26.0,29.65,WNW,290,5.0,-999.0,11,-99.99,,,0.00,weatherlink.com 1.10,2013-08-14 00:51:00,
2013-08-13 19:06:00,86.1,26.0,29.65,WNW,289,9.0,-999.0,11,-99.99,,,0.00,weatherlink.com 1.10,2013-08-14 01:06:00,
2013-08-13 19:22:00,85.5,27.0,29.66,WNW,299,5.0,-999.0,12,-99.99,,,0.00,weatherlink.com 1.10,2013-08-14 01:22:00,
2013-08-13 19:36:00,84.7,27.0,29.62,WNW,284,3.0,-999.0,12,-99.99,,,0.00,weatherlink.com 1.10,2013-08-14 01:36:00,
2013-08-13 19:51:00,83.6,28.0,29.63,WNW,287,2.0,-999.0,13,-99.99,,,0.00,weatherlink.com 1.10,2013-08-14 01:51:00,
2013-08-13 20:06:00,81.4,28.0,29.65,WNW,287,0.0,-999.0,14,-99.99,,,0.00,weatherlink.com 1.10,2013-08-14 02:06:00,
2013-08-13 20:21:00,80.1,28.0,29.66,WNW,287,2.0,-999.0,15,-99.99,,,0.00,weatherlink.com 1.10,2013-08-14 02:21:00,
2013-08-13 20:36:00,76.5,33.0,29.64,WNW,287,0.0,-999.0,20,-99.99,,,0.00,weatherlink.com 1.10,2013-08-14 02:36:00,
2013-08-13 20:51:00,74.0,34.0,29.66,WNW,287,1.0,-999.0,23,-99.99,,,0.00,weatherlink.com 1.10,2013-08-14 02:51:00,
2013-08-13 21:06:00,72.5,37.0,29.67,WNW,287,0.0,-999.0,27,-99.99,,,0.00,weatherlink.com 1.10,2013-08-14 03:06:00,
2013-08-13 21:21:00,73.0,35.0,29.68,NNE,31,0.0,-999.0,25,-99.99,,,0.00,weatherlink.com 1.10,2013-08-14 03:21:00,
2013-08-13 21:36:00,72.8,35.0,29.67,NNE,31,0.0,-999.0,25,-99.99,,,0.00,weatherlink.com 1.10,2013-08-14 03:36:00,
2013-08-13 21:51:00,72.8,35.0,29.68,NNE,31,2.0,-999.0,25,-99.99,,,0.00,weatherlink.com 1.10,2013-08-14 03:51:00,
2013-08-13 22:06:00,71.5,37.0,29.68,NNE,32,0.0,-999.0,28,-99.99,,,0.00,weatherlink.com 1.10,2013-08-14 04:06:00,
2013-08-13 22:21:00,69.4,37.0,29.70,NNE,32,0.0,-999.0,30,-99.99,,,0.00,weatherlink.com 1.10,2013-08-14 04:21:00,
2013-08-13 22:36:00,68.6,37.0,29.68,NNE,32,0.0,-999.0,32,-99.99,,,0.00,weatherlink.com 1.10,2013-08-14 04:36:00,
2013-08-13 22:51:00,67.6,39.0,29.69,NE,34,3.0,-999.0,35,-99.99,,,0.00,weatherlink.com 1.10,2013-08-14 04:51:00,
2013-08-13 23:06:00,66.9,38.0,29.69,NE,44,0.0,-999.0,35,-99.99,,,0.00,weatherlink.com 1.10,2013-08-14 05:06:00,
2013-08-13 23:21:00,66.3,38.0,29.70,NNE,30,3.0,-999.0,36,-99.99,,,0.00,weatherlink.com 1.10,2013-08-14 05:21:00,
2013-08-13 23:36:00,66.0,37.0,29.66,NE,37,2.0,-999.0,35,-99.99,,,0.00,weatherlink.com 1.10,2013-08-14 05:36:00,
2013-08-13 23:51:00,65.6,38.0,29.66,NE,41,2.0,-999.0,36,-99.99,,,0.00,weatherlink.com 1.10,2013-08-14 05:51:00,